Lost Hills, California
Current Conditions -  °F | °C
As of 7:54 AM on Thursday 30 Oct 2014 (Local Time) from KBFL Reporting Station
Haze Haze  
Wind Chill: 14°   Ceiling: Unl
Heat Index: 14°   Visibility: 6mi
Dew Point:   Wind: 6mph
Humidity: 53%   Direction: 50°NE
Pressure: 29.97"   Gusts: NA
Location:  35.62°N, 119.7°W
Report Text: KBFL 301454Z 05005KT 6SM HZ CLR 14/05 A2997 RMK AO2 SLP144 T01440050 53001
Loading
Personal Weather Stations






























Interactive Weather Map
Tropical Storm Tracking
New forecast layout! Learn more

10-Day Weather Forecast

Advertisements
Track Severe Weather on mobile